Flight Track Log - Related Links

Times and Time Zones

All times are in EDT time to prevent confusion due to time zone crossing. See the VNR131 flight status page for this flight to view local times or setup timezone preferences in your user account.

Time Position Orientation Groundspeed Altitude Reporting Facility
EDT Latitude Longitude Course Direction KTS MPH feet Rate Location/Type
Tue 05:19:37 PM 43.6172 -72.2594 235° Southwest 254 292 6,000  Level Boston Center
Tue 05:20:37 PM 43.5861 -72.3197 234° Southwest 196 226 7,900 1,800 Climbing Boston Center
Tue 05:21:37 PM 43.5508 -72.3856 235° Southwest 201 231 9,600 1,750 Climbing Boston Center
Tue 05:22:37 PM 43.5153 -72.4544 232° Southwest 214 246 11,400 1,750 Climbing Boston Center
Tue 05:23:37 PM 43.4758 -72.5231 234° Southwest 233 268 13,100 1,800 Climbing Boston Center
Tue 05:24:37 PM 43.4361 -72.5972 232° Southwest 238 274 15,000 1,400 Climbing Boston Center
Tue 05:25:37 PM 43.3942 -72.6714 232° Southwest 244 281 15,900 450 Climbing Boston Center
Tue 05:26:37 PM 43.3439 -72.7597 233° Southwest 272 313 15,900  Level Boston Center
Tue 05:27:37 PM 43.2936 -72.8508 232° Southwest 290 334 15,900  Level Boston Center
Tue 05:28:37 PM 43.2411 -72.9444 230° Southwest 303 349 15,900  Level Boston Center
Tue 05:29:37 PM 43.1825 -73.0408 233° Southwest 303 349 15,900  Level Boston Center
Tue 05:30:37 PM 43.1361 -73.1258 219° Southwest 314 361 15,900  Level Boston Center
Tue 05:31:37 PM 43.0669 -73.2017 217° Southwest 314 361 15,900  Level Boston Center
Tue 05:32:37 PM 42.9956 -73.2747 218° Southwest 319 367 15,900  Level Boston Center
Tue 05:33:37 PM 42.9261 -73.3475 217° Southwest 319 367 15,900 50 Level Boston Center
Tue 05:34:37 PM 42.8567 -73.4200 217° Southwest 324 373 16,000 50 Climbing Boston Center
Tue 05:35:37 PM 42.7853 -73.4925 217° Southwest 324 373 16,000  Level Boston Center
Tue 05:36:37 PM 42.7136 -73.5647 218° Southwest 324 373 16,000  Level Boston Center
Tue 05:37:37 PM 42.6464 -73.6369 216° Southwest 324 373 16,000  Level Boston Center
Tue 05:38:37 PM 42.5747 -73.7089 222° Southwest 324 373 16,000 -300 Level Boston Center
Tue 05:39:37 PM 42.5111 -73.7864 246° West 324 373 15,400 -850 Descending Boston Center
Tue 05:40:37 PM 42.4786 -73.8842 247° West 298 343 14,300 -700 Descending Boston Center
Tue 05:41:37 PM 42.4461 -73.9875 221° Southwest 303 349 14,000 -150 Descending Boston Center
Tue 05:42:37 PM 42.3825 -74.0619 210° Southwest 295 339 14,000  Level Boston Center
Tue 05:43:37 PM 42.3044 -74.1217 210° Southwest 310 357 14,000  Level Boston Center
Tue 05:44:37 PM 42.2203 -74.1867 209° Southwest 327 376 14,000  Level Boston Center
Tue 05:45:37 PM 42.1422 -74.2461 208° Southwest 327 376 14,000  Level Boston Center
Tue 05:46:37 PM 42.0642 -74.3025 209° Southwest 327 376 14,000 -500 Level Boston Center
Tue 05:47:37 PM 41.9861 -74.3617 209° Southwest 322 371 13,000 -1,200 Descending Boston Center
Tue 05:48:37 PM 41.9100 -74.4181 209° Southwest 317 365 11,600 -1,500 Descending Boston Center
Tue 05:49:37 PM 41.8383 -74.4714 208° Southwest 306 352 10,000 -1,400 Descending Boston Center
Tue 05:50:37 PM 41.7642 -74.5247 189° South 306 352 8,800 -1,300 Descending Boston Center
Tue 05:51:37 PM 41.6869 -74.5417 186° South 293 337 7,400 -850 Descending Boston Center
Tue 05:52:37 PM 41.6075 -74.5531 189° South 288 331 7,100 -200 Descending Boston Center
Tue 05:53:37 PM 41.5281 -74.5697 187° South 293 337 7,000 -300 Descending Boston Center
Tue 05:54:37 PM 41.4547 -74.5811 187° South 293 337 6,500 -380 Descending Boston Center
Tue 05:55:59 PM 41.3333 -74.6000 180° South 281 323 6,100 -592 Descending New York TRACON
Tue 05:56:59 PM 41.2667 -74.6000 171° South 291 335 5,100 -1,000 Descending New York TRACON
Tue 05:57:53 PM 41.1833 -74.5833 180° South 287 330 4,200 -579 Descending New York TRACON
Tue 05:58:53 PM 41.1167 -74.5833 180° South 278 320 4,000 -333 Descending New York TRACON
Tue 05:59:59 PM 41.0333 -74.5833 171° South 279 321 3,500 -476 Descending New York TRACON
Tue 06:00:59 PM 40.9500 -74.5667 169° South 272 313 3,000 -250 Descending New York TRACON
Tue 06:01:59 PM 40.8833 -74.5500 159° South 274 315 3,000  Level New York TRACON
Tue 06:02:59 PM 40.8167 -74.5167 128° Southeast 261 300 3,000  Level New York TRACON
Tue 06:03:59 PM 40.7667 -74.4333 143° Southeast 242 278 3,000 -450 Level New York TRACON
Tue 06:04:59 PM 40.7167 -74.3833 90° East 216 249 2,100 -500 Descending New York TRACON
Tue 06:05:59 PM 40.7167 -74.3167 72° East 196 226 2,000 -200 Descending New York TRACON
Tue 06:06:59 PM 40.7333 -74.2500 49° Northeast 191 220 1,700 -250 Descending New York TRACON
Tue 06:07:59 PM 40.7667 -74.2000 49° Northeast 176 203 1,500 -100 Descending New York TRACON
Tue 06:08:59 PM 40.8000 -74.1500 66° East 173 199 1,500 -350 Level New York TRACON
Tue 06:09:59 PM 40.8167 -74.1000 66° East 140 161 800 -700 Descending New York TRACON

Login

Don't have an account? Register now (free) for customized features, flight alerts, and more!